VCV132 SAEZ-SVMI
Flight info
| Callsign | VCV132 |
|---|---|
| Flight time | N/A |
| Altitude | 38000 |
| Route | BIVAM1E BIVAM UN775 PILCO UM784 BOLET UL404 VIR/N0475F390 UL322 VAROM/N0479F380 UL793 UDIDI/N0476F390 UL793 PUBIT/N0475F400 UL793 LOGON/N0478F390 UL793 EDPAL UQ235 PBL ALDAK1 |
| Aircraft | A346/H-SDE2E3FGHIJ3J4J5M1RWXY/LB1D1 |
Departure
| Time | 2026-05-07 17:52 |
|---|---|
| Airport | Ezeiza International Airport - Ministro Pistarini (SAEZ) |
Arrival
| Time | N/A |
|---|---|
| Airport | Maiquetía Simón Bolívar International Airport (SVMI) |
| Time | Latitude | Longitude | Altitude | Speed | Heading |
|---|---|---|---|---|---|
| 2026-05-07 17:23 | -34.81647 | -58.54365 | 78 ft | 0 kts | 336° |
| 2026-05-07 17:40 | -34.81665 | -58.54356 | 67 ft | 4 kts | 342° |
| 2026-05-07 17:41 | -34.81690 | -58.54350 | 67 ft | 4 kts | 357° |
| 2026-05-07 17:41 | -34.81714 | -58.54353 | 67 ft | 4 kts | 18° |
| 2026-05-07 17:41 | -34.81734 | -58.54366 | 67 ft | 4 kts | 46° |
| 2026-05-07 17:41 | -34.81747 | -58.54390 | 67 ft | 4 kts | 70° |
| 2026-05-07 17:42 | -34.81753 | -58.54421 | 67 ft | 4 kts | 84° |
| 2026-05-07 17:42 | -34.81754 | -58.54453 | 67 ft | 4 kts | 92° |
| 2026-05-07 17:42 | -34.81753 | -58.54480 | 67 ft | 0 kts | 94° |
| 2026-05-07 17:45 | -34.81753 | -58.54476 | 67 ft | 3 kts | 94° |
| 2026-05-07 17:45 | -34.81758 | -58.54421 | 67 ft | 10 kts | 97° |
| 2026-05-07 17:45 | -34.81768 | -58.54321 | 71 ft | 13 kts | 96° |
| 2026-05-07 17:45 | -34.81781 | -58.54211 | 74 ft | 12 kts | 99° |
| 2026-05-07 17:46 | -34.81791 | -58.54110 | 70 ft | 13 kts | 90° |
| 2026-05-07 17:46 | -34.81771 | -58.54003 | 69 ft | 14 kts | 68° |
| 2026-05-07 17:46 | -34.81728 | -58.53905 | 68 ft | 12 kts | 60° |
| 2026-05-07 17:46 | -34.81705 | -58.53798 | 70 ft | 14 kts | 97° |
| 2026-05-07 17:47 | -34.81768 | -58.53707 | 66 ft | 15 kts | 152° |
| 2026-05-07 17:47 | -34.81837 | -58.53663 | 68 ft | 11 kts | 147° |
| 2026-05-07 17:47 | -34.81896 | -58.53590 | 66 ft | 14 kts | 121° |
| 2026-05-07 17:47 | -34.81933 | -58.53474 | 75 ft | 16 kts | 105° |
| 2026-05-07 17:48 | -34.81962 | -58.53334 | 74 ft | 18 kts | 104° |
| 2026-05-07 17:48 | -34.81984 | -58.53226 | 70 ft | 20 kts | 104° |
| 2026-05-07 17:48 | -34.82018 | -58.53050 | 75 ft | 23 kts | 103° |
| 2026-05-07 17:48 | -34.82055 | -58.52864 | 69 ft | 22 kts | 104° |
| 2026-05-07 17:49 | -34.82094 | -58.52676 | 69 ft | 24 kts | 103° |
| 2026-05-07 17:49 | -34.82134 | -58.52472 | 74 ft | 25 kts | 104° |
| 2026-05-07 17:49 | -34.82177 | -58.52260 | 74 ft | 26 kts | 103° |
| 2026-05-07 17:49 | -34.82217 | -58.52059 | 73 ft | 23 kts | 104° |
| 2026-05-07 17:50 | -34.82247 | -58.51910 | 76 ft | 13 kts | 103° |
| 2026-05-07 17:50 | -34.82268 | -58.51816 | 66 ft | 9 kts | 115° |
| 2026-05-07 17:50 | -34.82330 | -58.51784 | 69 ft | 11 kts | 181° |
| 2026-05-07 17:50 | -34.82415 | -58.51804 | 66 ft | 13 kts | 192° |
| 2026-05-07 17:51 | -34.82483 | -58.51833 | 69 ft | 10 kts | 215° |
| 2026-05-07 17:51 | -34.82515 | -58.51918 | 69 ft | 12 kts | 272° |
| 2026-05-07 17:51 | -34.82505 | -58.51994 | 72 ft | 7 kts | 282° |
| 2026-05-07 17:51 | -34.82476 | -58.52160 | 73 ft | 46 kts | 282° |
| 2026-05-07 17:52 | -34.82362 | -58.52791 | 73 ft | 104 kts | 282° |
| 2026-05-07 17:52 | -34.82171 | -58.53865 | 78 ft | 153 kts | 282° |
| 2026-05-07 17:52 | -34.81919 | -58.55254 | 318 ft | 174 kts | 282° |
| 2026-05-07 17:52 | -34.81642 | -58.56680 | 969 ft | 172 kts | 282° |
| 2026-05-07 17:53 | -34.81358 | -58.58056 | 1712 ft | 167 kts | 280° |
| 2026-05-07 17:53 | -34.81088 | -58.59468 | 2154 ft | 177 kts | 278° |
| 2026-05-07 17:53 | -34.80648 | -58.60946 | 2451 ft | 202 kts | 303° |
| 2026-05-07 17:53 | -34.79371 | -58.61901 | 2771 ft | 234 kts | 336° |
| 2026-05-07 17:54 | -34.77729 | -58.62457 | 3097 ft | 255 kts | 339° |
| 2026-05-07 17:54 | -34.75952 | -58.63003 | 3603 ft | 268 kts | 340° |
| 2026-05-07 17:54 | -34.74142 | -58.63545 | 4471 ft | 268 kts | 341° |
| 2026-05-07 17:54 | -34.72339 | -58.64085 | 5408 ft | 265 kts | 342° |
| 2026-05-07 17:55 | -34.70554 | -58.64622 | 6345 ft | 263 kts | 342° |
| 2026-05-07 17:55 | -34.68777 | -58.65157 | 7196 ft | 264 kts | 342° |
| 2026-05-07 17:55 | -34.66987 | -58.65698 | 8014 ft | 266 kts | 342° |
| 2026-05-07 17:55 | -34.65180 | -58.66246 | 8857 ft | 269 kts | 342° |
| 2026-05-07 17:56 | -34.63356 | -58.66800 | 9700 ft | 271 kts | 343° |
| 2026-05-07 17:56 | -34.61501 | -58.67361 | 10371 ft | 280 kts | 342° |
| 2026-05-07 17:56 | -34.59549 | -58.67955 | 10789 ft | 298 kts | 342° |
| 2026-05-07 17:56 | -34.57482 | -58.68585 | 11156 ft | 316 kts | 342° |
| 2026-05-07 17:57 | -34.55289 | -58.69252 | 11476 ft | 333 kts | 342° |
| 2026-05-07 17:57 | -34.53774 | -58.69713 | 11685 ft | 345 kts | 342° |
| 2026-05-07 17:57 | -34.50597 | -58.70677 | 12302 ft | 363 kts | 342° |
| 2026-05-07 17:57 | -34.48091 | -58.71433 | 13076 ft | 367 kts | 342° |
| 2026-05-07 17:58 | -34.45638 | -58.72173 | 13841 ft | 370 kts | 342° |
| 2026-05-07 17:58 | -34.43130 | -58.72932 | 14560 ft | 372 kts | 342° |
| 2026-05-07 17:58 | -34.40611 | -58.73696 | 15285 ft | 375 kts | 342° |
| 2026-05-07 17:58 | -34.38075 | -58.74465 | 16012 ft | 377 kts | 342° |
| 2026-05-07 17:59 | -34.35520 | -58.75237 | 16745 ft | 378 kts | 342° |
| 2026-05-07 17:59 | -34.32970 | -58.76005 | 17555 ft | 378 kts | 341° |
| 2026-05-07 17:59 | -34.30420 | -58.76773 | 18279 ft | 378 kts | 341° |
| 2026-05-07 17:59 | -34.27869 | -58.77545 | 18956 ft | 377 kts | 341° |
| 2026-05-07 18:00 | -34.25323 | -58.78314 | 19671 ft | 376 kts | 342° |
| 2026-05-07 18:00 | -34.22783 | -58.79080 | 20437 ft | 375 kts | 342° |
| 2026-05-07 18:00 | -34.20256 | -58.79842 | 21178 ft | 374 kts | 342° |
| 2026-05-07 18:00 | -34.17763 | -58.80693 | 21927 ft | 371 kts | 338° |
| 2026-05-07 18:01 | -34.15356 | -58.81788 | 22642 ft | 368 kts | 334° |
| 2026-05-07 18:01 | -34.13048 | -58.83106 | 23336 ft | 366 kts | 331° |